Terminal Aerodrome Forecast
Issued by NWS Boston, MA

Home | Current Version | Previous Version | Text Only | Print | Product List | Glossary On
Versions: 1 2 3 4 5 6 7 8 9 10 11 12 13 14 15 16 17 18 19 20 21 22 23 24 25 26 27 28 29 30 31 32 33 34 35 36 37 38 39 40 41 42 43 44 45 46 47
488
FTUS41 KBOX 172012 AAA
TAFBDL
TAF AMD
KBDL 172012Z 1720/1824 18004KT P6SM FEW250
     FM180600 15004KT P6SM VCSH BKN090
     FM181300 17008KT P6SM VCSH OVC035
     FM181500 17007KT 3SM -RA BR OVC025
     FM181800 17008KT 3SM -RA OVC015=

USA.gov is the U.S. government's official web portal to all federal, state and local government web resources and services.